aviador You're here:

SCPQ Decoded Metar

in
Report Time2017-08-22 16:00:00
UTC Time2017-08-22 16:32:24
Flight Rules vfr VFR
Wind320° at 08 kt
W.Rank320° ranks 14
Current wind is below 320° avg. (8.5)
Visibility9999 m
Phenomena:N/A
Clouds:Scattered 015 Hf
Expected CloudBase > 1,600 ft AGL from Temp-Dew spread
CeilingNone
Temp07°C
Dew Point03°C (76% RH)
AAT2.6°C
QNH0996 hPa
Raw Report
SCPQ 221600Z 32008KT 280V010 9999 SCT015 07/03 Q0996=

Extra information for SCPQ:More info

Social comments